sensor_id;sensor_type;location;lat;lon;timestamp;pressure;altitude;pressure_sealevel;temperature;humidity
61119;BME280;51448;51.660;5.824;2023-02-21T00:02:38;101958.31;;;8.69;100.00
61119;BME280;51448;51.660;5.824;2023-02-21T00:05:25;101949.59;;;8.68;100.00
61119;BME280;51448;51.660;5.824;2023-02-21T00:08:11;101949.59;;;8.66;100.00
61119;BME280;51448;51.660;5.824;2023-02-21T00:10:57;101947.81;;;8.67;100.00
61119;BME280;51448;51.660;5.824;2023-02-21T00:13:44;101952.19;;;8.65;100.00
61119;BME280;51448;51.660;5.824;2023-02-21T00:16:30;101945.22;;;8.65;100.00
61119;BME280;51448;51.660;5.824;2023-02-21T00:19:16;101958.34;;;8.64;100.00
61119;BME280;51448;51.660;5.824;2023-02-21T00:22:02;101957.44;;;8.65;100.00
61119;BME280;51448;51.660;5.824;2023-02-21T00:24:49;101954.81;;;8.65;100.00
61119;BME280;51448;51.660;5.824;2023-02-21T00:27:35;101956.59;;;8.64;100.00
61119;BME280;51448;51.660;5.824;2023-02-21T00:30:22;101957.44;;;8.65;100.00
61119;BME280;51448;51.660;5.824;2023-02-21T00:33:08;101960.94;;;8.67;100.00
61119;BME280;51448;51.660;5.824;2023-02-21T00:35:55;101948.72;;;8.66;100.00
61119;BME280;51448;51.660;5.824;2023-02-21T00:38:41;101954.81;;;8.65;100.00
61119;BME280;51448;51.660;5.824;2023-02-21T00:41:28;101946.97;;;8.62;100.00
61119;BME280;51448;51.660;5.824;2023-02-21T00:44:14;101954.84;;;8.62;100.00
61119;BME280;51448;51.660;5.824;2023-02-21T00:47:00;101959.22;;;8.60;100.00
61119;BME280;51448;51.660;5.824;2023-02-21T00:49:46;101954.84;;;8.59;100.00
61119;BME280;51448;51.660;5.824;2023-02-21T00:52:33;101948.72;;;8.57;100.00
61119;BME280;51448;51.660;5.824;2023-02-21T00:55:19;101944.38;;;8.56;100.00
61119;BME280;51448;51.660;5.824;2023-02-21T00:58:05;101949.63;;;8.56;100.00
61119;BME280;51448;51.660;5.824;2023-02-21T01:00:52;101942.63;;;8.56;100.00
61119;BME280;51448;51.660;5.824;2023-02-21T01:03:38;101941.75;;;8.56;100.00
61119;BME280;51448;51.660;5.824;2023-02-21T01:06:25;101935.63;;;8.55;100.00
61119;BME280;51448;51.660;5.824;2023-02-21T01:09:11;101933.00;;;8.54;100.00
61119;BME280;51448;51.660;5.824;2023-02-21T01:11:58;101933.00;;;8.54;100.00
61119;BME280;51448;51.660;5.824;2023-02-21T01:14:44;101933.88;;;8.53;100.00
61119;BME280;51448;51.660;5.824;2023-02-21T01:17:30;101933.91;;;8.50;100.00
61119;BME280;51448;51.660;5.824;2023-02-21T01:20:17;101930.41;;;8.48;100.00
61119;BME280;51448;51.660;5.824;2023-02-21T01:23:04;101925.16;;;8.48;100.00
61119;BME280;51448;51.660;5.824;2023-02-21T01:25:50;101922.53;;;8.46;100.00
61119;BME280;51448;51.660;5.824;2023-02-21T01:28:36;101925.16;;;8.46;100.00
61119;BME280;51448;51.660;5.824;2023-02-21T01:31:24;101926.03;;;8.46;100.00
61119;BME280;51448;51.660;5.824;2023-02-21T01:34:12;101922.53;;;8.44;100.00
61119;BME280;51448;51.660;5.824;2023-02-21T01:37:01;101923.44;;;8.45;100.00
61119;BME280;51448;51.660;5.824;2023-02-21T01:39:49;101919.94;;;8.43;100.00
61119;BME280;51448;51.660;5.824;2023-02-21T01:42:35;101919.94;;;8.43;100.00
61119;BME280;51448;51.660;5.824;2023-02-21T01:48:11;101919.94;;;8.43;100.00
61119;BME280;51448;51.660;5.824;2023-02-21T01:51:04;101915.56;;;8.42;100.00
61119;BME280;51448;51.660;5.824;2023-02-21T01:53:53;101916.41;;;8.42;100.00
61119;BME280;51448;51.660;5.824;2023-02-21T01:56:40;101915.50;;;8.40;100.00
61119;BME280;51448;51.660;5.824;2023-02-21T01:59:27;101908.53;;;8.39;100.00
61119;BME280;51448;51.660;5.824;2023-02-21T02:02:21;101909.41;;;8.40;100.00
61119;BME280;51448;51.660;5.824;2023-02-21T02:05:11;101904.16;;;8.38;100.00
61119;BME280;51448;51.660;5.824;2023-02-21T02:07:58;101905.91;;;8.38;100.00
61119;BME280;51448;51.660;5.824;2023-02-21T02:10:45;101901.53;;;8.38;100.00
61119;BME280;51448;51.660;5.824;2023-02-21T02:13:50;101899.78;;;8.36;100.00
61119;BME280;51448;51.660;5.824;2023-02-21T02:16:41;101901.56;;;8.35;100.00
61119;BME280;51448;51.660;5.824;2023-02-21T02:34:44;101896.31;;;8.29;100.00
61119;BME280;51448;51.660;5.824;2023-02-21T02:37:16;101895.44;;;8.30;100.00
61119;BME280;51448;51.660;5.824;2023-02-21T02:43:53;101896.31;;;8.27;100.00
61119;BME280;51448;51.660;5.824;2023-02-21T02:46:28;101898.06;;;8.25;100.00
61119;BME280;51448;51.660;5.824;2023-02-21T02:49:11;101892.84;;;8.27;100.00
61119;BME280;51448;51.660;5.824;2023-02-21T02:51:49;101895.44;;;8.24;100.00
61119;BME280;51448;51.660;5.824;2023-02-21T02:54:21;101892.81;;;8.25;100.00
61119;BME280;51448;51.660;5.824;2023-02-21T02:56:49;101893.69;;;8.26;100.00
61119;BME280;51448;51.660;5.824;2023-02-21T02:59:20;101880.59;;;8.27;100.00
61119;BME280;51448;51.660;5.824;2023-02-21T03:08:52;101876.25;;;8.20;100.00
61119;BME280;51448;51.660;5.824;2023-02-21T03:11:29;101871.00;;;8.17;100.00
61119;BME280;51448;51.660;5.824;2023-02-21T03:14:06;101873.63;;;8.19;100.00
61119;BME280;51448;51.660;5.824;2023-02-21T03:16:44;101883.25;;;8.18;100.00
61119;BME280;51448;51.660;5.824;2023-02-21T03:19:24;101882.34;;;8.19;100.00
61119;BME280;51448;51.660;5.824;2023-02-21T03:21:58;101882.34;;;8.19;100.00
61119;BME280;51448;51.660;5.824;2023-02-21T03:24:30;101883.22;;;8.20;100.00
61119;BME280;51448;51.660;5.824;2023-02-21T03:27:04;101886.72;;;8.20;100.00
61119;BME280;51448;51.660;5.824;2023-02-21T03:29:53;101873.63;;;8.19;100.00
61119;BME280;51448;51.660;5.824;2023-02-21T03:32:36;101873.63;;;8.20;100.00
61119;BME280;51448;51.660;5.824;2023-02-21T03:35:07;101877.97;;;8.20;100.00
61119;BME280;51448;51.660;5.824;2023-02-21T03:37:40;101873.63;;;8.20;100.00
61119;BME280;51448;51.660;5.824;2023-02-21T03:40:29;101872.75;;;8.21;100.00
61119;BME280;51448;51.660;5.824;2023-02-21T03:43:02;101871.88;;;8.19;100.00
61119;BME280;51448;51.660;5.824;2023-02-21T03:45:41;101878.00;;;8.15;100.00
61119;BME280;51448;51.660;5.824;2023-02-21T03:48:13;101881.50;;;8.14;100.00
61119;BME280;51448;51.660;5.824;2023-02-21T03:50:50;101878.84;;;8.16;100.00
61119;BME280;51448;51.660;5.824;2023-02-21T03:53:19;101884.09;;;8.19;100.00
61119;BME280;51448;51.660;5.824;2023-02-21T03:55:47;101884.09;;;8.19;100.00
61119;BME280;51448;51.660;5.824;2023-02-21T03:58:20;101883.25;;;8.18;100.00
61119;BME280;51448;51.660;5.824;2023-02-21T04:00:48;101879.72;;;8.19;100.00
61119;BME280;51448;51.660;5.824;2023-02-21T04:03:17;101882.34;;;8.21;100.00
61119;BME280;51448;51.660;5.824;2023-02-21T04:05:54;101882.34;;;8.21;100.00
61119;BME280;51448;51.660;5.824;2023-02-21T04:08:22;101882.38;;;8.22;100.00
61119;BME280;51448;51.660;5.824;2023-02-21T04:10:50;101886.72;;;8.20;100.00
61119;BME280;51448;51.660;5.824;2023-02-21T04:13:21;101871.00;;;8.20;100.00
61119;BME280;51448;51.660;5.824;2023-02-21T04:15:51;101865.75;;;8.19;100.00
61119;BME280;51448;51.660;5.824;2023-02-21T04:18:20;101867.53;;;8.18;100.00
61119;BME280;51448;51.660;5.824;2023-02-21T04:20:50;101863.16;;;8.19;100.00
61119;BME280;51448;51.660;5.824;2023-02-21T04:23:19;101856.13;;;8.18;100.00
61119;BME280;51448;51.660;5.824;2023-02-21T04:25:48;101854.41;;;8.17;100.00
61119;BME280;51448;51.660;5.824;2023-02-21T04:28:24;101863.13;;;8.16;100.00
61119;BME280;51448;51.660;5.824;2023-02-21T04:30:52;101861.41;;;8.15;100.00
61119;BME280;51448;51.660;5.824;2023-02-21T04:33:20;101862.28;;;8.17;100.00
61119;BME280;51448;51.660;5.824;2023-02-21T04:35:47;101864.91;;;8.17;100.00
61119;BME280;51448;51.660;5.824;2023-02-21T04:38:34;101861.41;;;8.16;100.00
61119;BME280;51448;51.660;5.824;2023-02-21T04:41:04;101856.13;;;8.18;100.00
61119;BME280;51448;51.660;5.824;2023-02-21T04:43:32;101854.38;;;8.20;100.00
61119;BME280;51448;51.660;5.824;2023-02-21T04:45:59;101863.16;;;8.19;100.00
61119;BME280;51448;51.660;5.824;2023-02-21T04:48:28;101857.91;;;8.19;100.00
61119;BME280;51448;51.660;5.824;2023-02-21T04:50:57;101857.03;;;8.18;100.00
61119;BME280;51448;51.660;5.824;2023-02-21T04:53:41;101858.75;;;8.18;100.00
61119;BME280;51448;51.660;5.824;2023-02-21T04:56:09;101850.91;;;8.15;100.00
61119;BME280;51448;51.660;5.824;2023-02-21T04:58:40;101854.41;;;8.14;100.00
61119;BME280;51448;51.660;5.824;2023-02-21T05:01:13;101851.78;;;8.14;100.00
61119;BME280;51448;51.660;5.824;2023-02-21T05:03:42;101851.81;;;8.12;100.00
61119;BME280;51448;51.660;5.824;2023-02-21T05:06:18;101848.28;;;8.12;100.00
61119;BME280;51448;51.660;5.824;2023-02-21T05:08:48;101845.69;;;8.10;100.00
61119;BME280;51448;51.660;5.824;2023-02-21T05:11:17;101858.78;;;8.12;100.00
61119;BME280;51448;51.660;5.824;2023-02-21T05:13:46;101861.38;;;8.12;100.00
61119;BME280;51448;51.660;5.824;2023-02-21T05:16:15;101856.16;;;8.12;100.00
61119;BME280;51448;51.660;5.824;2023-02-21T05:18:45;101845.66;;;8.12;100.00
61119;BME280;51448;51.660;5.824;2023-02-21T05:21:15;101849.19;;;8.11;100.00
61119;BME280;51448;51.660;5.824;2023-02-21T05:23:46;101853.56;;;8.09;100.00
61119;BME280;51448;51.660;5.824;2023-02-21T05:26:26;101859.66;;;8.07;100.00
61119;BME280;51448;51.660;5.824;2023-02-21T05:28:59;101853.53;;;8.07;100.00
61119;BME280;51448;51.660;5.824;2023-02-21T05:31:26;101852.69;;;8.06;100.00
61119;BME280;51448;51.660;5.824;2023-02-21T05:33:55;101850.91;;;8.05;100.00
61119;BME280;51448;51.660;5.824;2023-02-21T05:36:23;101850.91;;;8.05;100.00
61119;BME280;51448;51.660;5.824;2023-02-21T05:38:53;101845.69;;;8.04;100.00
61119;BME280;51448;51.660;5.824;2023-02-21T05:41:22;101852.69;;;8.05;100.00
61119;BME280;51448;51.660;5.824;2023-02-21T05:43:50;101850.06;;;8.06;100.00
61119;BME280;51448;51.660;5.824;2023-02-21T05:46:24;101849.16;;;8.07;100.00
61119;BME280;51448;51.660;5.824;2023-02-21T05:48:55;101859.69;;;8.06;100.00
61119;BME280;51448;51.660;5.824;2023-02-21T05:51:27;101864.91;;;8.06;100.00
61119;BME280;51448;51.660;5.824;2023-02-21T05:54:00;101865.78;;;8.06;100.00
61119;BME280;51448;51.660;5.824;2023-02-21T05:56:28;101859.66;;;8.07;100.00
61119;BME280;51448;51.660;5.824;2023-02-21T05:58:55;101860.53;;;8.06;100.00
61119;BME280;51448;51.660;5.824;2023-02-21T06:01:23;101857.03;;;8.09;100.00
61119;BME280;51448;51.660;5.824;2023-02-21T06:03:51;101866.66;;;8.09;100.00
61119;BME280;51448;51.660;5.824;2023-02-21T06:06:18;101865.78;;;8.06;100.00
61119;BME280;51448;51.660;5.824;2023-02-21T06:08:47;101857.91;;;8.06;100.00
61119;BME280;51448;51.660;5.824;2023-02-21T06:11:22;101859.66;;;8.04;100.00
61119;BME280;51448;51.660;5.824;2023-02-21T06:13:54;101864.91;;;8.01;100.00
61119;BME280;51448;51.660;5.824;2023-02-21T06:16:24;101873.66;;;8.00;100.00
61119;BME280;51448;51.660;5.824;2023-02-21T06:18:53;101878.03;;;8.00;100.00
61119;BME280;51448;51.660;5.824;2023-02-21T06:21:22;101875.41;;;7.98;100.00
61119;BME280;51448;51.660;5.824;2023-02-21T06:23:50;101866.66;;;7.99;100.00
61119;BME280;51448;51.660;5.824;2023-02-21T06:26:18;101876.25;;;7.99;100.00
61119;BME280;51448;51.660;5.824;2023-02-21T06:28:47;101876.25;;;8.00;100.00
61119;BME280;51448;51.660;5.824;2023-02-21T06:31:16;101876.25;;;7.99;100.00
61119;BME280;51448;51.660;5.824;2023-02-21T06:33:47;101873.63;;;7.97;100.00
61119;BME280;51448;51.660;5.824;2023-02-21T06:36:21;101884.13;;;7.97;100.00
61119;BME280;51448;51.660;5.824;2023-02-21T06:38:52;101882.38;;;7.96;100.00
61119;BME280;51448;51.660;5.824;2023-02-21T06:41:24;101881.53;;;7.96;100.00
61119;BME280;51448;51.660;5.824;2023-02-21T06:43:55;101875.38;;;7.95;100.00
61119;BME280;51448;51.660;5.824;2023-02-21T06:46:26;101873.66;;;7.94;100.00
61119;BME280;51448;51.660;5.824;2023-02-21T06:48:56;101872.75;;;7.95;100.00
61119;BME280;51448;51.660;5.824;2023-02-21T06:51:25;101875.38;;;7.95;100.00
61119;BME280;51448;51.660;5.824;2023-02-21T06:53:56;101878.00;;;7.95;100.00
61119;BME280;51448;51.660;5.824;2023-02-21T06:56:24;101875.41;;;7.98;100.00
61119;BME280;51448;51.660;5.824;2023-02-21T06:58:53;101882.38;;;7.99;100.00
61119;BME280;51448;51.660;5.824;2023-02-21T07:01:21;101886.75;;;7.99;100.00
61119;BME280;51448;51.660;5.824;2023-02-21T07:03:51;101874.50;;;7.99;100.00
61119;BME280;51448;51.660;5.824;2023-02-21T07:06:19;101880.63;;;7.98;100.00
61119;BME280;51448;51.660;5.824;2023-02-21T07:08:48;101877.13;;;7.96;100.00
61119;BME280;51448;51.660;5.824;2023-02-21T07:11:17;101874.50;;;7.95;100.00
61119;BME280;51448;51.660;5.824;2023-02-21T07:13:49;101887.59;;;7.93;100.00
61119;BME280;51448;51.660;5.824;2023-02-21T07:16:19;101883.25;;;7.89;100.00
61119;BME280;51448;51.660;5.824;2023-02-21T07:18:47;101889.38;;;7.88;100.00
61119;BME280;51448;51.660;5.824;2023-02-21T07:21:16;101878.88;;;7.88;100.00
61119;BME280;51448;51.660;5.824;2023-02-21T07:23:46;101883.25;;;7.88;100.00
61119;BME280;51448;51.660;5.824;2023-02-21T07:26:14;101878.88;;;7.88;100.00
61119;BME280;51448;51.660;5.824;2023-02-21T07:28:42;101882.38;;;7.87;100.00
61119;BME280;51448;51.660;5.824;2023-02-21T07:31:10;101885.00;;;7.87;100.00
61119;BME280;51448;51.660;5.824;2023-02-21T07:33:38;101887.59;;;7.87;100.00
61119;BME280;51448;51.660;5.824;2023-02-21T07:36:06;101887.63;;;7.89;100.00
61119;BME280;51448;51.660;5.824;2023-02-21T07:38:34;101883.25;;;7.89;100.00
61119;BME280;51448;51.660;5.824;2023-02-21T07:41:02;101885.00;;;7.90;100.00
61119;BME280;51448;51.660;5.824;2023-02-21T07:43:30;101877.16;;;7.90;100.00
61119;BME280;51448;51.660;5.824;2023-02-21T07:45:59;101894.63;;;7.90;100.00
61119;BME280;51448;51.660;5.824;2023-02-21T07:48:27;101899.84;;;7.88;100.00
61119;BME280;51448;51.660;5.824;2023-02-21T07:50:54;101904.19;;;7.89;100.00
61119;BME280;51448;51.660;5.824;2023-02-21T07:53:22;101894.59;;;7.91;100.00
61119;BME280;51448;51.660;5.824;2023-02-21T07:55:50;101881.50;;;7.93;100.00
61119;BME280;51448;51.660;5.824;2023-02-21T07:58:17;101882.38;;;7.93;100.00
61119;BME280;51448;51.660;5.824;2023-02-21T08:00:47;101889.34;;;7.93;100.00
61119;BME280;51448;51.660;5.824;2023-02-21T08:03:15;101890.25;;;7.92;100.00
61119;BME280;51448;51.660;5.824;2023-02-21T08:05:43;101891.09;;;7.91;100.00
61119;BME280;51448;51.660;5.824;2023-02-21T08:08:14;101893.72;;;7.92;100.00
61119;BME280;51448;51.660;5.824;2023-02-21T08:10:43;101896.34;;;7.92;100.00
61119;BME280;51448;51.660;5.824;2023-02-21T08:13:11;101897.22;;;7.93;100.00
61119;BME280;51448;51.660;5.824;2023-02-21T08:15:38;101898.09;;;7.93;100.00
61119;BME280;51448;51.660;5.824;2023-02-21T08:18:14;101892.84;;;7.93;100.00
61119;BME280;51448;51.660;5.824;2023-02-21T08:20:46;101896.34;;;7.92;100.00
61119;BME280;51448;51.660;5.824;2023-02-21T08:23:14;101900.72;;;7.92;100.00
61119;BME280;51448;51.660;5.824;2023-02-21T08:25:41;101898.97;;;7.92;100.00
61119;BME280;51448;51.660;5.824;2023-02-21T08:28:09;101899.84;;;7.94;100.00
61119;BME280;51448;51.660;5.824;2023-02-21T08:30:37;101892.84;;;7.93;100.00
61119;BME280;51448;51.660;5.824;2023-02-21T08:33:05;101893.72;;;7.95;100.00
61119;BME280;51448;51.660;5.824;2023-02-21T08:35:33;101891.13;;;7.98;100.00
61119;BME280;51448;51.660;5.824;2023-02-21T08:38:01;101898.09;;;7.99;100.00
61119;BME280;51448;51.660;5.824;2023-02-21T08:40:32;101883.25;;;8.00;100.00
61119;BME280;51448;51.660;5.824;2023-02-21T08:43:00;101889.38;;;8.02;100.00
61119;BME280;51448;51.660;5.824;2023-02-21T08:45:28;101889.34;;;8.03;100.00
61119;BME280;51448;51.660;5.824;2023-02-21T08:47:58;101894.59;;;8.03;100.00
61119;BME280;51448;51.660;5.824;2023-02-21T08:50:27;101876.25;;;8.05;100.00
61119;BME280;51448;51.660;5.824;2023-02-21T08:52:55;101873.63;;;8.06;100.00
61119;BME280;51448;51.660;5.824;2023-02-21T08:55:23;101877.13;;;8.09;100.00
61119;BME280;51448;51.660;5.824;2023-02-21T08:57:52;101884.13;;;8.08;100.00
61119;BME280;51448;51.660;5.824;2023-02-21T09:00:23;101886.75;;;8.08;100.00
61119;BME280;51448;51.660;5.824;2023-02-21T09:02:56;101878.00;;;8.07;100.00
61119;BME280;51448;51.660;5.824;2023-02-21T09:05:26;101871.88;;;8.09;100.00
61119;BME280;51448;51.660;5.824;2023-02-21T09:07:58;101868.38;;;8.10;100.00
61119;BME280;51448;51.660;5.824;2023-02-21T09:10:29;101871.88;;;8.12;100.00
61119;BME280;51448;51.660;5.824;2023-02-21T09:13:01;101875.38;;;8.11;100.00
61119;BME280;51448;51.660;5.824;2023-02-21T09:15:30;101869.25;;;8.13;100.00
61119;BME280;51448;51.660;5.824;2023-02-21T09:17:58;101871.03;;;8.14;100.00
61119;BME280;51448;51.660;5.824;2023-02-21T09:20:27;101870.13;;;8.17;100.00
61119;BME280;51448;51.660;5.824;2023-02-21T09:22:54;101863.13;;;8.17;100.00
61119;BME280;51448;51.660;5.824;2023-02-21T09:25:23;101872.75;;;8.18;100.00
61119;BME280;51448;51.660;5.824;2023-02-21T09:27:52;101865.75;;;8.19;100.00
61119;BME280;51448;51.660;5.824;2023-02-21T09:30:23;101869.25;;;8.19;100.00
61119;BME280;51448;51.660;5.824;2023-02-21T09:32:55;101866.63;;;8.19;100.00
61119;BME280;51448;51.660;5.824;2023-02-21T09:35:23;101876.25;;;8.19;100.00
61119;BME280;51448;51.660;5.824;2023-02-21T09:37:50;101865.75;;;8.17;100.00
61119;BME280;51448;51.660;5.824;2023-02-21T09:43:20;101855.28;;;8.19;100.00
61119;BME280;51448;51.660;5.824;2023-02-21T09:46:10;101862.28;;;8.18;100.00
61119;BME280;51448;51.660;5.824;2023-02-21T09:48:44;101859.66;;;8.18;100.00
61119;BME280;51448;51.660;5.824;2023-02-21T09:51:13;101858.78;;;8.21;100.00
61119;BME280;51448;51.660;5.824;2023-02-21T09:53:46;101862.28;;;8.24;100.00
61119;BME280;51448;51.660;5.824;2023-02-21T09:56:30;101856.13;;;8.27;100.00
61119;BME280;51448;51.660;5.824;2023-02-21T09:59:09;101864.88;;;8.29;100.00
61119;BME280;51448;51.660;5.824;2023-02-21T10:02:00;101859.59;;;8.32;100.00
61119;BME280;51448;51.660;5.824;2023-02-21T10:08:00;101855.25;;;8.37;100.00
61119;BME280;51448;51.660;5.824;2023-02-21T10:14:10;101862.25;;;8.41;100.00
61119;BME280;51448;51.660;5.824;2023-02-21T10:20:14;101867.47;;;8.46;100.00
61119;BME280;51448;51.660;5.824;2023-02-21T10:22:50;101858.72;;;8.49;100.00
61119;BME280;51448;51.660;5.824;2023-02-21T10:25:26;101864.84;;;8.54;100.00
61119;BME280;51448;51.660;5.824;2023-02-21T10:27:58;101864.81;;;8.57;100.00
61119;BME280;51448;51.660;5.824;2023-02-21T10:30:31;101864.81;;;8.60;100.00
61119;BME280;51448;51.660;5.824;2023-02-21T10:33:04;101864.81;;;8.58;100.00
61119;BME280;51448;51.660;5.824;2023-02-21T10:35:33;101863.94;;;8.58;100.00
61119;BME280;51448;51.660;5.824;2023-02-21T10:38:06;101869.19;;;8.58;100.00
61119;BME280;51448;51.660;5.824;2023-02-21T10:43:48;101859.53;;;8.63;100.00
61119;BME280;51448;51.660;5.824;2023-02-21T10:46:34;101863.03;;;8.65;100.00
61119;BME280;51448;51.660;5.824;2023-02-21T10:49:35;101861.28;;;8.67;100.00
61119;BME280;51448;51.660;5.824;2023-02-21T10:55:13;101864.78;;;8.72;100.00
61119;BME280;51448;51.660;5.824;2023-02-21T10:58:06;101869.16;;;8.72;100.00
61119;BME280;51448;51.660;5.824;2023-02-21T11:00:41;101863.91;;;8.72;100.00
61119;BME280;51448;51.660;5.824;2023-02-21T11:03:22;101863.03;;;8.74;100.00
61119;BME280;51448;51.660;5.824;2023-02-21T11:05:55;101856.88;;;8.75;100.00
61119;BME280;51448;51.660;5.824;2023-02-21T11:08:38;101858.59;;;8.79;100.00
61119;BME280;51448;51.660;5.824;2023-02-21T11:11:06;101855.13;;;8.80;100.00
61119;BME280;51448;51.660;5.824;2023-02-21T11:13:34;101848.13;;;8.82;100.00
61119;BME280;51448;51.660;5.824;2023-02-21T11:16:11;101856.00;;;8.84;100.00
61119;BME280;51448;51.660;5.824;2023-02-21T11:18:43;101854.22;;;8.84;100.00
61119;BME280;51448;51.660;5.824;2023-02-21T11:21:16;101847.22;;;8.86;100.00
61119;BME280;51448;51.660;5.824;2023-02-21T11:23:55;101840.22;;;8.89;100.00
61119;BME280;51448;51.660;5.824;2023-02-21T11:26:35;101841.09;;;8.89;100.00
61119;BME280;51448;51.660;5.824;2023-02-21T11:29:17;101843.72;;;8.91;100.00
61119;BME280;51448;51.660;5.824;2023-02-21T11:31:52;101840.19;;;8.92;100.00
61119;BME280;51448;51.660;5.824;2023-02-21T11:34:20;101830.59;;;8.91;100.00
61119;BME280;51448;51.660;5.824;2023-02-21T11:37:02;101829.69;;;8.92;100.00
61119;BME280;51448;51.660;5.824;2023-02-21T11:39:32;101828.81;;;8.91;100.00
61119;BME280;51448;51.660;5.824;2023-02-21T11:42:03;101825.34;;;8.91;100.00
61119;BME280;51448;51.660;5.824;2023-02-21T11:45:05;101828.81;;;8.93;100.00
61119;BME280;51448;51.660;5.824;2023-02-21T11:48:00;101822.69;;;8.94;100.00
61119;BME280;51448;51.660;5.824;2023-02-21T11:50:36;101822.69;;;8.94;100.00
61119;BME280;51448;51.660;5.824;2023-02-21T11:53:45;101820.94;;;8.96;100.00
61119;BME280;51448;51.660;5.824;2023-02-21T11:56:27;101817.44;;;8.97;100.00
61119;BME280;51448;51.660;5.824;2023-02-21T12:02:23;101820.88;;;9.03;100.00
61119;BME280;51448;51.660;5.824;2023-02-21T12:05:22;101816.50;;;9.07;100.00
61119;BME280;51448;51.660;5.824;2023-02-21T12:11:25;101800.75;;;9.09;100.00
61119;BME280;51448;51.660;5.824;2023-02-21T12:20:24;101789.28;;;9.22;100.00
61119;BME280;51448;51.660;5.824;2023-02-21T12:25:31;101791.84;;;9.31;100.00
61119;BME280;51448;51.660;5.824;2023-02-21T12:28:24;101786.56;;;9.37;100.00
61119;BME280;51448;51.660;5.824;2023-02-21T12:31:44;101789.13;;;9.39;100.00
61119;BME280;51448;51.660;5.824;2023-02-21T12:43:50;101775.16;;;9.37;100.00
61119;BME280;51448;51.660;5.824;2023-02-21T12:55:02;101776.88;;;9.42;100.00
61119;BME280;51448;51.660;5.824;2023-02-21T12:57:53;101770.72;;;9.46;100.00
61119;BME280;51448;51.660;5.824;2023-02-21T13:00:31;101765.44;;;9.50;100.00
61119;BME280;51448;51.660;5.824;2023-02-21T13:06:35;101760.16;;;9.51;100.00
61119;BME280;51448;51.660;5.824;2023-02-21T13:12:08;101760.16;;;9.53;100.00
61119;BME280;51448;51.660;5.824;2023-02-21T13:14:45;101764.53;;;9.51;100.00
61119;BME280;51448;51.660;5.824;2023-02-21T13:17:17;101754.94;;;9.50;100.00
61119;BME280;51448;51.660;5.824;2023-02-21T13:19:47;101753.19;;;9.50;100.00
61119;BME280;51448;51.660;5.824;2023-02-21T13:28:28;101748.78;;;9.54;100.00
61119;BME280;51448;51.660;5.824;2023-02-21T13:30:59;101747.00;;;9.54;100.00
61119;BME280;51448;51.660;5.824;2023-02-21T13:33:35;101745.25;;;9.53;100.00
61119;BME280;51448;51.660;5.824;2023-02-21T13:36:21;101740.00;;;9.55;100.00
61119;BME280;51448;51.660;5.824;2023-02-21T13:41:39;101736.44;;;9.60;100.00
61119;BME280;51448;51.660;5.824;2023-02-21T13:44:26;101733.81;;;9.62;100.00
61119;BME280;51448;51.660;5.824;2023-02-21T13:47:02;101725.06;;;9.60;100.00
61119;BME280;51448;51.660;5.824;2023-02-21T14:16:48;101715.38;;;9.66;100.00
61119;BME280;51448;51.660;5.824;2023-02-21T14:19:30;101704.88;;;9.63;100.00
61119;BME280;51448;51.660;5.824;2023-02-21T14:22:02;101709.28;;;9.61;100.00
61119;BME280;51448;51.660;5.824;2023-02-21T14:24:35;101719.81;;;9.60;100.00
61119;BME280;51448;51.660;5.824;2023-02-21T14:29:39;101714.63;;;9.54;100.00
61119;BME280;51448;51.660;5.824;2023-02-21T14:37:22;101706.81;;;9.44;100.00
61119;BME280;51448;51.660;5.824;2023-02-21T14:39:53;101705.97;;;9.42;100.00
61119;BME280;51448;51.660;5.824;2023-02-21T14:46:11;101693.75;;;9.40;100.00
61119;BME280;51448;51.660;5.824;2023-02-21T14:55:33;101693.81;;;9.34;100.00
61119;BME280;51448;51.660;5.824;2023-02-21T15:04:11;101706.06;;;9.33;100.00
61119;BME280;51448;51.660;5.824;2023-02-21T15:06:45;101692.09;;;9.30;100.00
61119;BME280;51448;51.660;5.824;2023-02-21T15:09:25;101696.50;;;9.27;100.00
61119;BME280;51448;51.660;5.824;2023-02-21T15:11:53;101688.63;;;9.27;100.00
61119;BME280;51448;51.660;5.824;2023-02-21T15:14:25;101686.91;;;9.25;100.00
61119;BME280;51448;51.660;5.824;2023-02-21T15:16:58;101689.53;;;9.23;100.00
61119;BME280;51448;51.660;5.824;2023-02-21T15:19:32;101691.28;;;9.21;100.00
61119;BME280;51448;51.660;5.824;2023-02-21T15:30:26;101677.31;;;9.19;100.00
61119;BME280;51448;51.660;5.824;2023-02-21T15:33:11;101677.28;;;9.22;100.00
61119;BME280;51448;51.660;5.824;2023-02-21T15:35:54;101673.78;;;9.23;100.00
61119;BME280;51448;51.660;5.824;2023-02-21T15:38:46;101674.66;;;9.22;100.00
61119;BME280;51448;51.660;5.824;2023-02-21T15:41:38;101680.78;;;9.23;100.00
61119;BME280;51448;51.660;5.824;2023-02-21T15:44:30;101676.41;;;9.23;100.00
61119;BME280;51448;51.660;5.824;2023-02-21T15:50:08;101675.53;;;9.23;100.00
61119;BME280;51448;51.660;5.824;2023-02-21T15:58:08;101667.72;;;9.17;100.00
61119;BME280;51448;51.660;5.824;2023-02-21T16:00:46;101656.38;;;9.13;100.00
61119;BME280;51448;51.660;5.824;2023-02-21T16:03:33;101661.63;;;9.13;100.00
61119;BME280;51448;51.660;5.824;2023-02-21T16:06:25;101654.66;;;9.09;100.00
61119;BME280;51448;51.660;5.824;2023-02-21T16:11:45;101656.41;;;9.07;100.00
61119;BME280;51448;51.660;5.824;2023-02-21T16:14:38;101655.53;;;9.08;100.00
61119;BME280;51448;51.660;5.824;2023-02-21T16:20:22;101668.69;;;9.02;100.00
61119;BME280;51448;51.660;5.824;2023-02-21T16:28:36;101659.16;;;8.96;100.00
61119;BME280;51448;51.660;5.824;2023-02-21T16:31:16;101663.50;;;8.96;100.00
61119;BME280;51448;51.660;5.824;2023-02-21T16:33:50;101658.31;;;8.90;100.00